sensor_id;sensor_type;location;lat;lon;timestamp;P1;durP1;ratioP1;P2;durP2;ratioP2
3321;SDS011;1673;51.388;7.086;2023-04-24T00:00:10;2.85;;;1.00;;
3321;SDS011;1673;51.388;7.086;2023-04-24T00:02:41;2.13;;;1.10;;
3321;SDS011;1673;51.388;7.086;2023-04-24T00:05:14;4.03;;;1.20;;
3321;SDS011;1673;51.388;7.086;2023-04-24T00:07:47;3.33;;;1.20;;
3321;SDS011;1673;51.388;7.086;2023-04-24T00:10:19;2.90;;;1.50;;
3321;SDS011;1673;51.388;7.086;2023-04-24T00:12:49;3.63;;;1.50;;
3321;SDS011;1673;51.388;7.086;2023-04-24T00:15:19;4.57;;;1.73;;
3321;SDS011;1673;51.388;7.086;2023-04-24T00:17:49;3.20;;;1.60;;
3321;SDS011;1673;51.388;7.086;2023-04-24T00:20:20;2.70;;;1.50;;
3321;SDS011;1673;51.388;7.086;2023-04-24T00:22:52;2.33;;;1.30;;
3321;SDS011;1673;51.388;7.086;2023-04-24T00:25:22;4.55;;;1.60;;
3321;SDS011;1673;51.388;7.086;2023-04-24T00:27:51;3.47;;;1.50;;
3321;SDS011;1673;51.388;7.086;2023-04-24T00:30:21;3.60;;;1.52;;
3321;SDS011;1673;51.388;7.086;2023-04-24T00:32:51;3.33;;;1.67;;
3321;SDS011;1673;51.388;7.086;2023-04-24T00:35:22;2.90;;;1.60;;
3321;SDS011;1673;51.388;7.086;2023-04-24T00:37:55;4.35;;;1.70;;
3321;SDS011;1673;51.388;7.086;2023-04-24T00:40:25;3.33;;;1.88;;
3321;SDS011;1673;51.388;7.086;2023-04-24T00:42:55;4.78;;;2.00;;
3321;SDS011;1673;51.388;7.086;2023-04-24T00:45:25;4.97;;;1.83;;
3321;SDS011;1673;51.388;7.086;2023-04-24T00:47:55;5.80;;;1.80;;
3321;SDS011;1673;51.388;7.086;2023-04-24T00:50:25;3.90;;;1.80;;
3321;SDS011;1673;51.388;7.086;2023-04-24T00:52:57;3.28;;;1.70;;
3321;SDS011;1673;51.388;7.086;2023-04-24T00:55:27;4.40;;;1.95;;
3321;SDS011;1673;51.388;7.086;2023-04-24T00:57:58;3.70;;;2.10;;
3321;SDS011;1673;51.388;7.086;2023-04-24T01:00:29;4.32;;;1.83;;
3321;SDS011;1673;51.388;7.086;2023-04-24T01:02:59;4.60;;;2.00;;
3321;SDS011;1673;51.388;7.086;2023-04-24T01:05:32;3.70;;;1.98;;
3321;SDS011;1673;51.388;7.086;2023-04-24T01:08:05;4.13;;;2.10;;
3321;SDS011;1673;51.388;7.086;2023-04-24T01:10:35;3.88;;;1.98;;
3321;SDS011;1673;51.388;7.086;2023-04-24T01:13:06;5.10;;;2.30;;
3321;SDS011;1673;51.388;7.086;2023-04-24T01:15:37;4.05;;;1.95;;
3321;SDS011;1673;51.388;7.086;2023-04-24T01:18:07;4.70;;;2.33;;
3321;SDS011;1673;51.388;7.086;2023-04-24T01:20:37;5.78;;;2.60;;
3321;SDS011;1673;51.388;7.086;2023-04-24T01:23:13;6.95;;;2.50;;
3321;SDS011;1673;51.388;7.086;2023-04-24T01:25:43;5.43;;;2.50;;
3321;SDS011;1673;51.388;7.086;2023-04-24T01:28:13;6.20;;;2.80;;
3321;SDS011;1673;51.388;7.086;2023-04-24T01:30:43;4.95;;;3.08;;
3321;SDS011;1673;51.388;7.086;2023-04-24T01:33:13;5.63;;;2.70;;
3321;SDS011;1673;51.388;7.086;2023-04-24T01:35:43;8.10;;;3.03;;
3321;SDS011;1673;51.388;7.086;2023-04-24T01:38:15;5.80;;;3.08;;
3321;SDS011;1673;51.388;7.086;2023-04-24T01:40:45;7.13;;;2.95;;
3321;SDS011;1673;51.388;7.086;2023-04-24T01:43:16;4.70;;;2.60;;
3321;SDS011;1673;51.388;7.086;2023-04-24T01:45:47;5.20;;;3.10;;
3321;SDS011;1673;51.388;7.086;2023-04-24T01:48:17;4.82;;;3.00;;
3321;SDS011;1673;51.388;7.086;2023-04-24T01:50:46;6.75;;;3.45;;
3321;SDS011;1673;51.388;7.086;2023-04-24T01:53:19;4.88;;;3.28;;
3321;SDS011;1673;51.388;7.086;2023-04-24T01:55:49;7.82;;;4.15;;
3321;SDS011;1673;51.388;7.086;2023-04-24T01:58:18;8.63;;;4.43;;
3321;SDS011;1673;51.388;7.086;2023-04-24T02:00:48;9.55;;;5.13;;
3321;SDS011;1673;51.388;7.086;2023-04-24T02:03:19;10.27;;;6.20;;
3321;SDS011;1673;51.388;7.086;2023-04-24T02:05:49;11.73;;;6.70;;
3321;SDS011;1673;51.388;7.086;2023-04-24T02:08:21;18.55;;;7.90;;
3321;SDS011;1673;51.388;7.086;2023-04-24T02:10:51;11.13;;;5.97;;
3321;SDS011;1673;51.388;7.086;2023-04-24T02:13:21;11.98;;;7.10;;
3321;SDS011;1673;51.388;7.086;2023-04-24T02:15:51;12.52;;;7.15;;
3321;SDS011;1673;51.388;7.086;2023-04-24T02:18:22;14.23;;;7.90;;
3321;SDS011;1673;51.388;7.086;2023-04-24T02:20:52;11.77;;;7.22;;
3321;SDS011;1673;51.388;7.086;2023-04-24T02:23:24;12.93;;;8.32;;
3321;SDS011;1673;51.388;7.086;2023-04-24T02:25:54;14.35;;;8.10;;
3321;SDS011;1673;51.388;7.086;2023-04-24T02:28:24;14.82;;;8.25;;
3321;SDS011;1673;51.388;7.086;2023-04-24T02:30:54;14.65;;;8.35;;
3321;SDS011;1673;51.388;7.086;2023-04-24T02:33:25;13.25;;;8.20;;
3321;SDS011;1673;51.388;7.086;2023-04-24T02:35:54;15.90;;;8.70;;
3321;SDS011;1673;51.388;7.086;2023-04-24T02:38:27;17.75;;;9.27;;
3321;SDS011;1673;51.388;7.086;2023-04-24T02:40:57;18.17;;;9.37;;
3321;SDS011;1673;51.388;7.086;2023-04-24T02:43:27;17.77;;;9.65;;
3321;SDS011;1673;51.388;7.086;2023-04-24T02:45:57;17.95;;;9.82;;
3321;SDS011;1673;51.388;7.086;2023-04-24T02:48:27;18.15;;;10.68;;
3321;SDS011;1673;51.388;7.086;2023-04-24T02:50:57;16.83;;;10.30;;
3321;SDS011;1673;51.388;7.086;2023-04-24T02:53:30;15.90;;;10.15;;
3321;SDS011;1673;51.388;7.086;2023-04-24T02:56:00;16.00;;;9.43;;
3321;SDS011;1673;51.388;7.086;2023-04-24T02:58:29;16.87;;;9.77;;
3321;SDS011;1673;51.388;7.086;2023-04-24T03:00:59;16.73;;;10.05;;
3321;SDS011;1673;51.388;7.086;2023-04-24T03:03:29;16.90;;;8.98;;
3321;SDS011;1673;51.388;7.086;2023-04-24T03:05:59;18.63;;;10.60;;
3321;SDS011;1673;51.388;7.086;2023-04-24T03:08:32;17.30;;;10.00;;
3321;SDS011;1673;51.388;7.086;2023-04-24T03:11:02;19.63;;;10.15;;
3321;SDS011;1673;51.388;7.086;2023-04-24T03:13:31;22.05;;;11.27;;
3321;SDS011;1673;51.388;7.086;2023-04-24T03:16:01;23.85;;;11.20;;
3321;SDS011;1673;51.388;7.086;2023-04-24T03:18:31;20.50;;;11.07;;
3321;SDS011;1673;51.388;7.086;2023-04-24T03:21:02;20.50;;;10.80;;
3321;SDS011;1673;51.388;7.086;2023-04-24T03:23:35;20.08;;;11.40;;
3321;SDS011;1673;51.388;7.086;2023-04-24T03:26:06;21.00;;;11.30;;
3321;SDS011;1673;51.388;7.086;2023-04-24T03:28:43;24.17;;;11.57;;
3321;SDS011;1673;51.388;7.086;2023-04-24T03:31:13;21.10;;;11.07;;
3321;SDS011;1673;51.388;7.086;2023-04-24T03:33:43;21.53;;;11.50;;
3321;SDS011;1673;51.388;7.086;2023-04-24T03:36:13;21.38;;;12.10;;
3321;SDS011;1673;51.388;7.086;2023-04-24T03:38:46;20.58;;;11.95;;
3321;SDS011;1673;51.388;7.086;2023-04-24T03:41:21;24.45;;;12.35;;
3321;SDS011;1673;51.388;7.086;2023-04-24T03:44:01;21.25;;;11.90;;
3321;SDS011;1673;51.388;7.086;2023-04-24T03:46:31;22.95;;;12.18;;
3321;SDS011;1673;51.388;7.086;2023-04-24T03:49:01;25.13;;;12.20;;
3321;SDS011;1673;51.388;7.086;2023-04-24T03:51:34;23.20;;;11.83;;
3321;SDS011;1673;51.388;7.086;2023-04-24T03:54:18;25.23;;;12.77;;
3321;SDS011;1673;51.388;7.086;2023-04-24T03:56:49;22.27;;;11.65;;
3321;SDS011;1673;51.388;7.086;2023-04-24T03:59:19;22.92;;;12.50;;
3321;SDS011;1673;51.388;7.086;2023-04-24T04:02:03;24.48;;;12.32;;
3321;SDS011;1673;51.388;7.086;2023-04-24T04:04:34;19.63;;;11.90;;
3321;SDS011;1673;51.388;7.086;2023-04-24T04:07:05;21.70;;;12.07;;
3321;SDS011;1673;51.388;7.086;2023-04-24T04:09:37;21.50;;;12.00;;
3321;SDS011;1673;51.388;7.086;2023-04-24T04:12:08;22.52;;;12.27;;
3321;SDS011;1673;51.388;7.086;2023-04-24T04:14:38;20.50;;;12.20;;
3321;SDS011;1673;51.388;7.086;2023-04-24T04:17:08;22.83;;;11.98;;
3321;SDS011;1673;51.388;7.086;2023-04-24T04:19:42;23.30;;;11.60;;
3321;SDS011;1673;51.388;7.086;2023-04-24T04:22:12;22.02;;;12.25;;
3321;SDS011;1673;51.388;7.086;2023-04-24T04:24:49;21.33;;;12.52;;
3321;SDS011;1673;51.388;7.086;2023-04-24T04:27:21;23.05;;;11.90;;
3321;SDS011;1673;51.388;7.086;2023-04-24T04:29:59;22.25;;;11.45;;
3321;SDS011;1673;51.388;7.086;2023-04-24T04:32:42;20.43;;;12.80;;
3321;SDS011;1673;51.388;7.086;2023-04-24T04:35:12;22.25;;;12.15;;
3321;SDS011;1673;51.388;7.086;2023-04-24T04:37:42;26.20;;;13.23;;
3321;SDS011;1673;51.388;7.086;2023-04-24T04:40:20;22.10;;;13.13;;
3321;SDS011;1673;51.388;7.086;2023-04-24T04:42:57;24.77;;;13.25;;
3321;SDS011;1673;51.388;7.086;2023-04-24T04:45:31;22.80;;;12.93;;
3321;SDS011;1673;51.388;7.086;2023-04-24T04:48:22;22.30;;;13.27;;
3321;SDS011;1673;51.388;7.086;2023-04-24T04:50:52;26.80;;;12.45;;
3321;SDS011;1673;51.388;7.086;2023-04-24T04:53:22;26.05;;;13.55;;
3321;SDS011;1673;51.388;7.086;2023-04-24T04:55:55;22.15;;;12.25;;
3321;SDS011;1673;51.388;7.086;2023-04-24T04:58:32;19.92;;;11.80;;
3321;SDS011;1673;51.388;7.086;2023-04-24T05:01:04;21.42;;;11.90;;
3321;SDS011;1673;51.388;7.086;2023-04-24T05:03:39;20.77;;;12.00;;
3321;SDS011;1673;51.388;7.086;2023-04-24T05:06:15;18.50;;;11.27;;
3321;SDS011;1673;51.388;7.086;2023-04-24T05:08:45;20.40;;;11.32;;
3321;SDS011;1673;51.388;7.086;2023-04-24T05:11:44;17.27;;;10.05;;
3321;SDS011;1673;51.388;7.086;2023-04-24T05:14:14;19.80;;;10.80;;
3321;SDS011;1673;51.388;7.086;2023-04-24T05:16:44;16.95;;;10.38;;
3321;SDS011;1673;51.388;7.086;2023-04-24T05:19:17;19.20;;;10.25;;
3321;SDS011;1673;51.388;7.086;2023-04-24T05:21:47;23.43;;;11.30;;
3321;SDS011;1673;51.388;7.086;2023-04-24T05:24:16;20.80;;;11.38;;
3321;SDS011;1673;51.388;7.086;2023-04-24T05:27:01;16.50;;;10.63;;
3321;SDS011;1673;51.388;7.086;2023-04-24T05:29:36;23.23;;;12.73;;
3321;SDS011;1673;51.388;7.086;2023-04-24T05:32:08;20.13;;;12.20;;
3321;SDS011;1673;51.388;7.086;2023-04-24T05:34:38;25.80;;;12.37;;
3321;SDS011;1673;51.388;7.086;2023-04-24T05:37:08;21.00;;;12.90;;
3321;SDS011;1673;51.388;7.086;2023-04-24T05:39:38;22.25;;;13.02;;
3321;SDS011;1673;51.388;7.086;2023-04-24T05:42:11;22.60;;;13.63;;
3321;SDS011;1673;51.388;7.086;2023-04-24T05:44:40;21.65;;;12.60;;
3321;SDS011;1673;51.388;7.086;2023-04-24T05:47:10;24.40;;;13.63;;
3321;SDS011;1673;51.388;7.086;2023-04-24T05:49:40;27.08;;;14.85;;
3321;SDS011;1673;51.388;7.086;2023-04-24T05:52:10;23.65;;;13.60;;
3321;SDS011;1673;51.388;7.086;2023-04-24T05:54:41;19.40;;;11.88;;
3321;SDS011;1673;51.388;7.086;2023-04-24T05:57:19;20.05;;;12.30;;
3321;SDS011;1673;51.388;7.086;2023-04-24T05:59:53;22.23;;;12.13;;
3321;SDS011;1673;51.388;7.086;2023-04-24T06:02:24;18.45;;;10.05;;
3321;SDS011;1673;51.388;7.086;2023-04-24T06:04:59;20.10;;;11.00;;
3321;SDS011;1673;51.388;7.086;2023-04-24T06:07:32;18.08;;;11.30;;
3321;SDS011;1673;51.388;7.086;2023-04-24T06:10:06;19.10;;;10.00;;
3321;SDS011;1673;51.388;7.086;2023-04-24T06:12:47;16.73;;;10.02;;
3321;SDS011;1673;51.388;7.086;2023-04-24T06:15:57;20.57;;;11.07;;
3321;SDS011;1673;51.388;7.086;2023-04-24T06:18:32;16.55;;;10.35;;
3321;SDS011;1673;51.388;7.086;2023-04-24T06:21:07;18.25;;;10.15;;
3321;SDS011;1673;51.388;7.086;2023-04-24T06:23:37;18.77;;;10.30;;
3321;SDS011;1673;51.388;7.086;2023-04-24T06:26:14;19.27;;;10.93;;
3321;SDS011;1673;51.388;7.086;2023-04-24T06:28:54;15.90;;;9.75;;
3321;SDS011;1673;51.388;7.086;2023-04-24T06:31:35;19.83;;;9.98;;
3321;SDS011;1673;51.388;7.086;2023-04-24T06:34:15;19.88;;;10.63;;
3321;SDS011;1673;51.388;7.086;2023-04-24T06:36:50;19.60;;;10.25;;
3321;SDS011;1673;51.388;7.086;2023-04-24T06:39:22;18.37;;;10.80;;
3321;SDS011;1673;51.388;7.086;2023-04-24T06:41:53;16.70;;;10.70;;
3321;SDS011;1673;51.388;7.086;2023-04-24T06:44:26;18.17;;;10.98;;
3321;SDS011;1673;51.388;7.086;2023-04-24T06:46:56;18.52;;;11.93;;
3321;SDS011;1673;51.388;7.086;2023-04-24T06:49:25;19.15;;;11.10;;
3321;SDS011;1673;51.388;7.086;2023-04-24T06:51:55;16.23;;;9.75;;
3321;SDS011;1673;51.388;7.086;2023-04-24T06:54:25;16.93;;;9.90;;
3321;SDS011;1673;51.388;7.086;2023-04-24T06:56:57;16.20;;;10.10;;
3321;SDS011;1673;51.388;7.086;2023-04-24T06:59:32;17.35;;;9.63;;
3321;SDS011;1673;51.388;7.086;2023-04-24T07:02:02;17.80;;;10.57;;
3321;SDS011;1673;51.388;7.086;2023-04-24T07:04:39;14.38;;;8.70;;
3321;SDS011;1673;51.388;7.086;2023-04-24T07:07:09;14.25;;;8.73;;
3321;SDS011;1673;51.388;7.086;2023-04-24T07:09:42;12.77;;;8.20;;
3321;SDS011;1673;51.388;7.086;2023-04-24T07:12:20;15.00;;;8.50;;
3321;SDS011;1673;51.388;7.086;2023-04-24T07:14:53;10.38;;;6.20;;
3321;SDS011;1673;51.388;7.086;2023-04-24T07:17:25;12.73;;;6.40;;
3321;SDS011;1673;51.388;7.086;2023-04-24T07:19:55;11.50;;;6.70;;
3321;SDS011;1673;51.388;7.086;2023-04-24T07:22:28;10.52;;;6.00;;
3321;SDS011;1673;51.388;7.086;2023-04-24T07:25:03;12.27;;;7.00;;
3321;SDS011;1673;51.388;7.086;2023-04-24T07:27:35;12.05;;;7.20;;
3321;SDS011;1673;51.388;7.086;2023-04-24T07:30:09;13.82;;;7.78;;
3321;SDS011;1673;51.388;7.086;2023-04-24T07:32:40;13.60;;;8.10;;
3321;SDS011;1673;51.388;7.086;2023-04-24T07:35:13;11.00;;;6.80;;
3321;SDS011;1673;51.388;7.086;2023-04-24T07:37:52;10.43;;;5.72;;
3321;SDS011;1673;51.388;7.086;2023-04-24T07:40:24;6.80;;;4.43;;
3321;SDS011;1673;51.388;7.086;2023-04-24T07:42:54;8.90;;;4.53;;
3321;SDS011;1673;51.388;7.086;2023-04-24T07:45:26;8.18;;;3.80;;
3321;SDS011;1673;51.388;7.086;2023-04-24T07:47:57;4.95;;;3.10;;
3321;SDS011;1673;51.388;7.086;2023-04-24T07:50:27;5.55;;;2.30;;
3321;SDS011;1673;51.388;7.086;2023-04-24T07:53:00;4.10;;;2.40;;
3321;SDS011;1673;51.388;7.086;2023-04-24T07:55:31;5.20;;;2.63;;
3321;SDS011;1673;51.388;7.086;2023-04-24T07:58:04;3.60;;;1.70;;
3321;SDS011;1673;51.388;7.086;2023-04-24T08:00:40;4.03;;;1.85;;
3321;SDS011;1673;51.388;7.086;2023-04-24T08:03:10;3.20;;;1.70;;
3321;SDS011;1673;51.388;7.086;2023-04-24T08:05:45;3.42;;;1.90;;
3321;SDS011;1673;51.388;7.086;2023-04-24T08:08:21;3.40;;;1.70;;
3321;SDS011;1673;51.388;7.086;2023-04-24T08:10:51;3.00;;;1.43;;
3321;SDS011;1673;51.388;7.086;2023-04-24T08:13:27;2.88;;;1.27;;
3321;SDS011;1673;51.388;7.086;2023-04-24T08:16:03;4.30;;;1.10;;
3321;SDS011;1673;51.388;7.086;2023-04-24T08:18:35;2.92;;;1.40;;
3321;SDS011;1673;51.388;7.086;2023-04-24T08:21:08;2.78;;;1.30;;
3321;SDS011;1673;51.388;7.086;2023-04-24T08:23:44;3.00;;;1.50;;
3321;SDS011;1673;51.388;7.086;2023-04-24T08:26:13;3.28;;;1.48;;
3321;SDS011;1673;51.388;7.086;2023-04-24T08:28:43;2.35;;;1.30;;
3321;SDS011;1673;51.388;7.086;2023-04-24T08:31:21;2.58;;;1.38;;
3321;SDS011;1673;51.388;7.086;2023-04-24T08:33:56;4.20;;;1.85;;
3321;SDS011;1673;51.388;7.086;2023-04-24T08:36:26;2.60;;;1.35;;
3321;SDS011;1673;51.388;7.086;2023-04-24T08:39:16;3.50;;;1.50;;
3321;SDS011;1673;51.388;7.086;2023-04-24T08:41:47;3.60;;;1.40;;
3321;SDS011;1673;51.388;7.086;2023-04-24T08:44:19;2.97;;;1.67;;
3321;SDS011;1673;51.388;7.086;2023-04-24T08:46:55;5.83;;;2.00;;
3321;SDS011;1673;51.388;7.086;2023-04-24T08:49:25;3.55;;;2.00;;
3321;SDS011;1673;51.388;7.086;2023-04-24T08:51:58;5.32;;;1.80;;
3321;SDS011;1673;51.388;7.086;2023-04-24T08:54:28;3.60;;;1.70;;
3321;SDS011;1673;51.388;7.086;2023-04-24T08:57:03;3.90;;;1.67;;
3321;SDS011;1673;51.388;7.086;2023-04-24T08:59:33;4.43;;;2.00;;
3321;SDS011;1673;51.388;7.086;2023-04-24T09:02:10;4.63;;;1.90;;
3321;SDS011;1673;51.388;7.086;2023-04-24T09:04:52;5.20;;;2.20;;
3321;SDS011;1673;51.388;7.086;2023-04-24T09:07:28;6.15;;;2.75;;
3321;SDS011;1673;51.388;7.086;2023-04-24T09:10:08;4.53;;;2.70;;
3321;SDS011;1673;51.388;7.086;2023-04-24T09:12:39;3.73;;;2.30;;
3321;SDS011;1673;51.388;7.086;2023-04-24T09:15:14;4.50;;;2.58;;
3321;SDS011;1673;51.388;7.086;2023-04-24T09:17:46;4.55;;;2.50;;
3321;SDS011;1673;51.388;7.086;2023-04-24T09:20:16;4.73;;;1.83;;
3321;SDS011;1673;51.388;7.086;2023-04-24T09:22:52;3.40;;;2.10;;
3321;SDS011;1673;51.388;7.086;2023-04-24T09:25:24;4.30;;;2.13;;
3321;SDS011;1673;51.388;7.086;2023-04-24T09:28:04;3.17;;;1.95;;
3321;SDS011;1673;51.388;7.086;2023-04-24T09:30:39;5.13;;;2.80;;
3321;SDS011;1673;51.388;7.086;2023-04-24T09:33:17;6.80;;;3.80;;
3321;SDS011;1673;51.388;7.086;2023-04-24T09:35:48;6.90;;;4.72;;
3321;SDS011;1673;51.388;7.086;2023-04-24T09:38:19;10.57;;;6.13;;
3321;SDS011;1673;51.388;7.086;2023-04-24T09:40:49;12.30;;;6.20;;
3321;SDS011;1673;51.388;7.086;2023-04-24T09:43:19;14.65;;;7.60;;
3321;SDS011;1673;51.388;7.086;2023-04-24T09:45:49;11.27;;;6.55;;
3321;SDS011;1673;51.388;7.086;2023-04-24T09:48:21;10.98;;;7.05;;
3321;SDS011;1673;51.388;7.086;2023-04-24T09:50:59;13.98;;;5.30;;
3321;SDS011;1673;51.388;7.086;2023-04-24T09:53:30;12.77;;;4.65;;
3321;SDS011;1673;51.388;7.086;2023-04-24T09:56:06;8.75;;;4.25;;
3321;SDS011;1673;51.388;7.086;2023-04-24T09:58:36;9.25;;;5.55;;
3321;SDS011;1673;51.388;7.086;2023-04-24T10:01:06;10.43;;;5.40;;
3321;SDS011;1673;51.388;7.086;2023-04-24T10:03:38;11.50;;;5.68;;
3321;SDS011;1673;51.388;7.086;2023-04-24T10:06:12;10.45;;;5.78;;
3321;SDS011;1673;51.388;7.086;2023-04-24T10:08:42;11.20;;;5.83;;
3321;SDS011;1673;51.388;7.086;2023-04-24T10:11:12;12.05;;;6.70;;
3321;SDS011;1673;51.388;7.086;2023-04-24T10:13:42;12.18;;;6.15;;
3321;SDS011;1673;51.388;7.086;2023-04-24T10:16:12;10.50;;;6.23;;
3321;SDS011;1673;51.388;7.086;2023-04-24T10:18:45;14.90;;;6.90;;
3321;SDS011;1673;51.388;7.086;2023-04-24T10:24:48;12.50;;;7.20;;
3321;SDS011;1673;51.388;7.086;2023-04-24T10:27:25;14.65;;;8.80;;
3321;SDS011;1673;51.388;7.086;2023-04-24T10:29:56;15.55;;;7.35;;
3321;SDS011;1673;51.388;7.086;2023-04-24T10:32:26;13.88;;;7.10;;
3321;SDS011;1673;51.388;7.086;2023-04-24T10:34:59;15.68;;;7.25;;
3321;SDS011;1673;51.388;7.086;2023-04-24T10:37:27;15.30;;;7.70;;
3321;SDS011;1673;51.388;7.086;2023-04-24T10:39:57;14.90;;;7.32;;
3321;SDS011;1673;51.388;7.086;2023-04-24T10:42:27;17.87;;;7.80;;
3321;SDS011;1673;51.388;7.086;2023-04-24T10:44:57;24.00;;;8.18;;
3321;SDS011;1673;51.388;7.086;2023-04-24T10:47:28;17.50;;;9.20;;
3321;SDS011;1673;51.388;7.086;2023-04-24T10:50:01;25.38;;;9.50;;
3321;SDS011;1673;51.388;7.086;2023-04-24T10:52:43;21.00;;;9.50;;
3321;SDS011;1673;51.388;7.086;2023-04-24T10:55:13;23.67;;;10.15;;
3321;SDS011;1673;51.388;7.086;2023-04-24T11:00:31;21.90;;;9.10;;
3321;SDS011;1673;51.388;7.086;2023-04-24T11:03:01;19.45;;;8.45;;
3321;SDS011;1673;51.388;7.086;2023-04-24T11:05:52;20.88;;;9.10;;
3321;SDS011;1673;51.388;7.086;2023-04-24T11:08:25;15.75;;;7.90;;
3321;SDS011;1673;51.388;7.086;2023-04-24T11:11:01;23.45;;;8.25;;
3321;SDS011;1673;51.388;7.086;2023-04-24T11:16:37;19.00;;;7.63;;
3321;SDS011;1673;51.388;7.086;2023-04-24T11:19:09;23.83;;;8.10;;
3321;SDS011;1673;51.388;7.086;2023-04-24T11:21:44;18.97;;;8.77;;
3321;SDS011;1673;51.388;7.086;2023-04-24T11:24:26;21.58;;;8.65;;
3321;SDS011;1673;51.388;7.086;2023-04-24T11:26:58;19.40;;;8.70;;
3321;SDS011;1673;51.388;7.086;2023-04-24T11:29:43;21.77;;;8.73;;
3321;SDS011;1673;51.388;7.086;2023-04-24T11:32:17;18.25;;;8.65;;
3321;SDS011;1673;51.388;7.086;2023-04-24T11:34:58;28.27;;;10.77;;
3321;SDS011;1673;51.388;7.086;2023-04-24T11:37:33;23.10;;;11.10;;
3321;SDS011;1673;51.388;7.086;2023-04-24T11:40:04;26.83;;;11.40;;
3321;SDS011;1673;51.388;7.086;2023-04-24T11:42:36;24.87;;;11.30;;
3321;SDS011;1673;51.388;7.086;2023-04-24T11:45:07;20.27;;;9.95;;
3321;SDS011;1673;51.388;7.086;2023-04-24T11:47:38;19.85;;;9.45;;
3321;SDS011;1673;51.388;7.086;2023-04-24T11:50:09;18.55;;;7.95;;
3321;SDS011;1673;51.388;7.086;2023-04-24T11:52:44;17.45;;;7.70;;
3321;SDS011;1673;51.388;7.086;2023-04-24T11:55:24;23.00;;;8.73;;
3321;SDS011;1673;51.388;7.086;2023-04-24T11:57:56;20.23;;;9.23;;
3321;SDS011;1673;51.388;7.086;2023-04-24T12:00:28;17.33;;;7.90;;
3321;SDS011;1673;51.388;7.086;2023-04-24T12:03:04;18.88;;;8.63;;
3321;SDS011;1673;51.388;7.086;2023-04-24T12:05:39;16.70;;;8.67;;
3321;SDS011;1673;51.388;7.086;2023-04-24T12:08:13;23.20;;;9.93;;
3321;SDS011;1673;51.388;7.086;2023-04-24T12:10:56;25.52;;;8.35;;
3321;SDS011;1673;51.388;7.086;2023-04-24T12:13:26;21.02;;;9.77;;
3321;SDS011;1673;51.388;7.086;2023-04-24T12:15:56;25.42;;;9.15;;
3321;SDS011;1673;51.388;7.086;2023-04-24T12:18:26;18.70;;;9.00;;
3321;SDS011;1673;51.388;7.086;2023-04-24T12:21:03;21.57;;;8.40;;
3321;SDS011;1673;51.388;7.086;2023-04-24T12:23:50;19.90;;;7.70;;
3321;SDS011;1673;51.388;7.086;2023-04-24T12:26:20;15.23;;;7.13;;
3321;SDS011;1673;51.388;7.086;2023-04-24T12:28:51;16.30;;;7.43;;
3321;SDS011;1673;51.388;7.086;2023-04-24T12:31:21;15.63;;;7.27;;
3321;SDS011;1673;51.388;7.086;2023-04-24T12:33:51;14.75;;;7.22;;
3321;SDS011;1673;51.388;7.086;2023-04-24T12:36:21;18.15;;;6.95;;
3321;SDS011;1673;51.388;7.086;2023-04-24T12:38:55;12.40;;;5.82;;
3321;SDS011;1673;51.388;7.086;2023-04-24T12:41:24;17.90;;;5.73;;
3321;SDS011;1673;51.388;7.086;2023-04-24T12:43:54;12.60;;;5.05;;
3321;SDS011;1673;51.388;7.086;2023-04-24T12:46:24;9.77;;;4.85;;
3321;SDS011;1673;51.388;7.086;2023-04-24T12:48:54;13.23;;;5.70;;
3321;SDS011;1673;51.388;7.086;2023-04-24T12:51:25;10.30;;;5.55;;
3321;SDS011;1673;51.388;7.086;2023-04-24T12:53:57;10.20;;;4.50;;
3321;SDS011;1673;51.388;7.086;2023-04-24T12:56:27;13.27;;;5.28;;
3321;SDS011;1673;51.388;7.086;2023-04-24T12:58:57;12.25;;;4.90;;
3321;SDS011;1673;51.388;7.086;2023-04-24T13:01:27;14.60;;;5.50;;
3321;SDS011;1673;51.388;7.086;2023-04-24T13:03:57;8.10;;;4.10;;
3321;SDS011;1673;51.388;7.086;2023-04-24T13:06:27;11.45;;;4.10;;
3321;SDS011;1673;51.388;7.086;2023-04-24T13:09:00;8.48;;;3.90;;
3321;SDS011;1673;51.388;7.086;2023-04-24T13:11:30;10.38;;;3.70;;
3321;SDS011;1673;51.388;7.086;2023-04-24T13:14:00;12.40;;;3.60;;
3321;SDS011;1673;51.388;7.086;2023-04-24T13:16:29;8.10;;;3.55;;
3321;SDS011;1673;51.388;7.086;2023-04-24T13:18:59;7.65;;;3.10;;
3321;SDS011;1673;51.388;7.086;2023-04-24T13:21:29;7.85;;;3.13;;
3321;SDS011;1673;51.388;7.086;2023-04-24T13:24:01;6.95;;;3.00;;
3321;SDS011;1673;51.388;7.086;2023-04-24T13:26:32;8.13;;;2.80;;
3321;SDS011;1673;51.388;7.086;2023-04-24T13:29:01;7.50;;;3.10;;
3321;SDS011;1673;51.388;7.086;2023-04-24T13:31:31;8.77;;;3.42;;
3321;SDS011;1673;51.388;7.086;2023-04-24T13:34:01;13.67;;;3.70;;
3321;SDS011;1673;51.388;7.086;2023-04-24T13:36:31;8.53;;;3.70;;
3321;SDS011;1673;51.388;7.086;2023-04-24T13:39:04;10.63;;;3.50;;
3321;SDS011;1673;51.388;7.086;2023-04-24T13:41:35;9.27;;;3.35;;
3321;SDS011;1673;51.388;7.086;2023-04-24T13:44:05;10.10;;;3.83;;
3321;SDS011;1673;51.388;7.086;2023-04-24T13:46:35;7.88;;;2.70;;
3321;SDS011;1673;51.388;7.086;2023-04-24T13:49:05;9.07;;;3.08;;
3321;SDS011;1673;51.388;7.086;2023-04-24T13:51:35;6.30;;;2.40;;
3321;SDS011;1673;51.388;7.086;2023-04-24T13:54:07;10.98;;;2.30;;
3321;SDS011;1673;51.388;7.086;2023-04-24T13:56:38;9.07;;;2.58;;
3321;SDS011;1673;51.388;7.086;2023-04-24T13:59:08;5.50;;;2.10;;
3321;SDS011;1673;51.388;7.086;2023-04-24T14:01:37;11.13;;;2.90;;
3321;SDS011;1673;51.388;7.086;2023-04-24T14:04:07;7.95;;;2.47;;
3321;SDS011;1673;51.388;7.086;2023-04-24T14:06:37;8.40;;;2.38;;
3321;SDS011;1673;51.388;7.086;2023-04-24T14:09:10;7.40;;;2.55;;
3321;SDS011;1673;51.388;7.086;2023-04-24T14:11:39;5.00;;;2.15;;
3321;SDS011;1673;51.388;7.086;2023-04-24T14:14:09;6.77;;;2.77;;
3321;SDS011;1673;51.388;7.086;2023-04-24T14:16:39;9.27;;;3.22;;
3321;SDS011;1673;51.388;7.086;2023-04-24T14:19:09;7.38;;;3.15;;
3321;SDS011;1673;51.388;7.086;2023-04-24T14:21:38;7.80;;;3.20;;
3321;SDS011;1673;51.388;7.086;2023-04-24T14:24:11;7.70;;;2.90;;
3321;SDS011;1673;51.388;7.086;2023-04-24T14:26:41;9.50;;;3.50;;
3321;SDS011;1673;51.388;7.086;2023-04-24T14:29:11;10.68;;;2.85;;
3321;SDS011;1673;51.388;7.086;2023-04-24T14:31:41;8.50;;;2.80;;
3321;SDS011;1673;51.388;7.086;2023-04-24T14:34:12;4.97;;;2.70;;
3321;SDS011;1673;51.388;7.086;2023-04-24T14:36:42;6.00;;;2.20;;
3321;SDS011;1673;51.388;7.086;2023-04-24T14:39:15;5.70;;;2.10;;
3321;SDS011;1673;51.388;7.086;2023-04-24T14:41:45;6.10;;;1.80;;
3321;SDS011;1673;51.388;7.086;2023-04-24T14:44:15;5.10;;;2.20;;
3321;SDS011;1673;51.388;7.086;2023-04-24T14:46:45;6.55;;;2.08;;
3321;SDS011;1673;51.388;7.086;2023-04-24T14:49:15;5.10;;;2.00;;
3321;SDS011;1673;51.388;7.086;2023-04-24T14:51:44;4.70;;;2.30;;
3321;SDS011;1673;51.388;7.086;2023-04-24T14:54:17;7.18;;;2.10;;
3321;SDS011;1673;51.388;7.086;2023-04-24T14:56:49;4.45;;;1.83;;
3321;SDS011;1673;51.388;7.086;2023-04-24T14:59:19;7.38;;;2.10;;
3321;SDS011;1673;51.388;7.086;2023-04-24T15:01:49;5.53;;;1.70;;
3321;SDS011;1673;51.388;7.086;2023-04-24T15:04:40;3.10;;;1.80;;
3321;SDS011;1673;51.388;7.086;2023-04-24T15:07:10;5.10;;;2.10;;
3321;SDS011;1673;51.388;7.086;2023-04-24T15:09:43;6.53;;;2.15;;
3321;SDS011;1673;51.388;7.086;2023-04-24T15:12:13;4.93;;;1.83;;
3321;SDS011;1673;51.388;7.086;2023-04-24T15:14:43;5.88;;;1.98;;
3321;SDS011;1673;51.388;7.086;2023-04-24T15:17:13;4.57;;;1.80;;
3321;SDS011;1673;51.388;7.086;2023-04-24T15:19:43;3.60;;;1.75;;
3321;SDS011;1673;51.388;7.086;2023-04-24T15:22:12;5.20;;;1.60;;
3321;SDS011;1673;51.388;7.086;2023-04-24T15:24:45;6.00;;;1.90;;
3321;SDS011;1673;51.388;7.086;2023-04-24T15:27:14;5.88;;;2.40;;
3321;SDS011;1673;51.388;7.086;2023-04-24T15:29:44;6.17;;;1.80;;
3321;SDS011;1673;51.388;7.086;2023-04-24T15:32:14;5.82;;;2.00;;
3321;SDS011;1673;51.388;7.086;2023-04-24T15:34:44;6.38;;;1.98;;
3321;SDS011;1673;51.388;7.086;2023-04-24T15:37:19;5.90;;;2.15;;
3321;SDS011;1673;51.388;7.086;2023-04-24T15:39:51;6.70;;;2.10;;
3321;SDS011;1673;51.388;7.086;2023-04-24T15:42:21;6.30;;;2.00;;